Aviation Digital Data Service (ADDS)

Output produced by METARs form (1230 UTC 25 June 2019)
found at http://www.aviationweather.gov/metar/data/
 
Forecast for: VTUO (BURIRUM , TH)
Text: TAF VTUO 251100Z 2512/2612 20007KT 9000 SCT025
Forecast period: 1200 UTC 25 June 2019 to 1200 UTC 26 June 2019
Forecast type: FROM: standard forecast or significant change
Winds: from the SSW (200 degrees) at 8 MPH (7 knots; 3.6 m/s)
Visibility: 6 miles (9 km)
Ceiling: at least 12,000 feet AGL
Clouds: scattered clouds at 2500 feet AGL
Weather: no significant weather forecast for this period